createdAt,value
2023-03-17T00:36:51.457Z,81.51
2023-03-17T00:38:51.421Z,84.21
2023-03-17T00:39:51.443Z,85.76
2023-03-17T00:40:51.418Z,87.57
2023-03-17T00:41:51.399Z,88.92
2023-03-17T00:42:51.380Z,88.81
2023-03-17T00:43:51.369Z,88.61
2023-03-17T00:44:51.362Z,88.40
2023-03-17T00:45:51.361Z,87.26
2023-03-17T00:46:51.357Z,84.87
2023-03-17T00:47:51.330Z,84.35
2023-03-17T00:48:51.336Z,85.39
2023-03-17T00:49:51.320Z,84.35
2023-03-17T00:50:51.298Z,84.00
2023-03-17T00:51:51.295Z,82.13
2023-03-17T00:52:51.280Z,81.61
2023-03-17T00:54:51.260Z,99.99
2023-03-17T00:56:51.268Z,84.87
2023-03-17T00:57:51.233Z,86.01
2023-03-17T00:58:51.220Z,86.12
2023-03-17T01:00:51.254Z,82.80
2023-03-17T01:02:51.178Z,99.99
2023-03-17T01:03:51.171Z,80.37
2023-03-17T01:04:59.859Z,99.99
2023-03-17T01:05:52.177Z,82.34
2023-03-17T01:06:51.158Z,80.78
2023-03-17T01:08:51.115Z,80.47
2023-03-17T01:09:51.111Z,82.96
2023-03-17T01:10:51.099Z,84.21
2023-03-17T01:11:51.110Z,84.00
2023-03-17T01:12:51.101Z,85.91
2023-03-17T01:13:51.074Z,85.29
2023-03-17T01:14:51.058Z,85.08
2023-03-17T01:15:51.068Z,86.74
2023-03-17T01:16:51.036Z,89.54
2023-03-17T01:17:51.028Z,91.61
2023-03-17T01:18:51.070Z,93.11
2023-03-17T01:19:51.007Z,99.99
2023-03-17T01:20:51.008Z,94.36
2023-03-17T01:21:50.986Z,93.11
2023-03-17T01:22:50.978Z,91.34
2023-03-17T01:23:50.967Z,92.48
2023-03-17T01:24:50.958Z,93.11
2023-03-17T01:25:50.947Z,91.76
2023-03-17T01:26:50.989Z,91.55
2023-03-17T01:27:50.951Z,90.93
2023-03-17T01:28:50.915Z,92.07
2023-03-17T01:29:50.902Z,99.99
2023-03-17T01:30:50.898Z,93.73
2023-03-17T01:31:50.926Z,93.94
2023-03-17T01:32:50.916Z,99.99
2023-03-17T01:33:50.875Z,95.60
2023-03-17T01:34:50.856Z,93.88
2023-03-17T01:35:50.955Z,92.59
2023-03-17T01:36:50.839Z,99.99
2023-03-17T01:37:50.828Z,99.99
2023-03-17T01:38:50.862Z,89.78
2023-03-17T01:40:50.804Z,91.96
2023-03-17T01:41:50.787Z,94.15
2023-03-17T01:42:50.779Z,95.60
2023-03-17T01:43:50.793Z,96.85
2023-03-17T01:44:50.757Z,97.41
2023-03-17T01:45:50.777Z,97.51
2023-03-17T01:46:50.739Z,97.82
2023-03-17T01:47:50.729Z,98.03
2023-03-17T01:48:50.714Z,98.13
2023-03-17T01:49:50.713Z,96.78
2023-03-17T01:50:50.699Z,96.16
2023-03-17T01:51:50.686Z,96.68
2023-03-17T01:52:50.678Z,97.41
2023-03-17T01:53:50.669Z,97.82
2023-03-17T01:54:50.660Z,97.61
2023-03-17T01:55:50.647Z,96.89
2023-03-17T01:56:50.635Z,97.88
2023-03-17T01:57:50.627Z,98.86
2023-03-17T01:58:50.630Z,98.55
2023-03-17T01:59:50.632Z,96.58
2023-03-17T02:00:50.712Z,94.29
2023-03-17T02:01:50.587Z,96.06
2023-03-17T02:02:50.580Z,97.30
2023-03-17T02:03:50.614Z,97.93
2023-03-17T02:04:50.557Z,97.82
2023-03-17T02:05:50.546Z,97.61
2023-03-17T02:06:58.041Z,98.24
2023-03-17T02:07:51.555Z,99.70
2023-03-17T02:08:50.519Z,99.99
2023-03-17T02:09:50.507Z,99.95
2023-03-17T02:10:50.539Z,99.84
2023-03-17T02:11:50.489Z,99.90
2023-03-17T02:12:50.480Z,99.63
2023-03-17T02:13:50.468Z,99.12
2023-03-17T02:14:50.462Z,98.08
2023-03-17T02:15:50.466Z,98.18
2023-03-17T02:16:50.495Z,99.43
2023-03-17T02:17:50.435Z,99.59
2023-03-17T02:18:50.419Z,98.76
2023-03-17T02:19:50.427Z,98.03
2023-03-17T02:20:50.393Z,97.10
2023-03-17T02:21:50.384Z,95.54
2023-03-17T02:23:50.367Z,96.16
2023-03-17T02:25:50.346Z,98.24
2023-03-17T02:26:50.337Z,98.65
2023-03-17T02:27:50.332Z,99.99
2023-03-17T02:28:50.317Z,99.32
2023-03-17T02:31:50.313Z,96.83
2023-03-17T02:32:50.337Z,97.30
2023-03-17T02:34:50.257Z,97.20
2023-03-17T02:35:50.302Z,99.99
2023-03-17T02:36:50.314Z,97.56
2023-03-17T02:37:50.230Z,97.03
2023-03-17T04:54:48.858Z,87.37
2023-03-17T04:55:48.870Z,87.48
2023-03-17T04:56:48.838Z,86.34
2023-03-17T04:57:48.827Z,85.71
2023-03-17T05:03:48.770Z,82.76
2023-03-17T05:04:48.766Z,82.76
2023-03-17T05:07:48.733Z,82.56
2023-03-17T05:09:48.708Z,99.99
2023-03-17T05:10:48.696Z,82.56
2023-03-17T05:11:48.708Z,83.70
2023-03-17T05:12:48.679Z,84.01
2023-03-17T05:13:48.667Z,84.11
2023-03-17T05:14:48.681Z,85.36
2023-03-17T05:15:48.645Z,85.40
2023-03-17T05:16:48.776Z,85.51
2023-03-17T05:17:48.629Z,85.82
2023-03-17T05:18:48.625Z,99.99
2023-03-17T05:19:48.610Z,86.85
2023-03-17T05:20:48.610Z,86.65
2023-03-17T05:21:48.585Z,86.85
2023-03-17T05:22:48.675Z,87.48
2023-03-17T05:23:48.566Z,88.00
2023-03-17T05:24:48.587Z,87.79
2023-03-17T05:25:48.544Z,88.31
2023-03-17T05:26:48.537Z,87.68
2023-03-17T05:27:48.552Z,88.41
2023-03-17T05:28:48.530Z,88.41
2023-03-17T05:29:48.506Z,87.79
2023-03-17T05:30:48.532Z,87.68
2023-03-17T05:31:48.499Z,87.68
2023-03-17T05:32:48.668Z,87.58
2023-03-17T05:33:48.464Z,88.00
2023-03-17T05:34:48.456Z,88.62
2023-03-17T05:35:48.496Z,89.35
2023-03-17T05:36:48.434Z,89.25
2023-03-17T05:37:48.426Z,90.22
2023-03-17T05:38:48.413Z,91.47
2023-03-17T05:39:48.407Z,93.13
2023-03-17T05:40:48.404Z,93.45
2023-03-17T05:41:48.390Z,94.28
2023-03-17T05:42:48.380Z,93.86
2023-03-17T05:43:48.394Z,93.86
2023-03-17T05:44:48.355Z,99.99
2023-03-17T05:45:48.380Z,94.59
2023-03-17T05:46:48.349Z,94.28
2023-03-17T05:47:48.475Z,93.55
2023-03-17T05:48:48.330Z,92.92
2023-03-17T05:49:48.300Z,92.51
2023-03-17T05:50:48.309Z,91.26
2023-03-17T05:51:48.287Z,90.91
2023-03-17T05:52:48.426Z,89.45
2023-03-17T05:53:48.267Z,88.51
2023-03-17T05:54:48.263Z,88.51
2023-03-17T05:55:48.248Z,88.83
2023-03-17T05:56:48.233Z,88.73
2023-03-17T05:57:48.226Z,89.52
2023-03-17T05:58:48.214Z,89.66
2023-03-17T05:59:48.242Z,87.89
2023-03-17T06:00:48.195Z,88.20
2023-03-17T06:01:48.186Z,87.65
2023-03-17T06:02:48.177Z,88.00
2023-03-17T06:03:48.209Z,88.10
2023-03-17T06:04:48.154Z,88.17
2023-03-17T06:05:48.151Z,88.20
2023-03-17T06:06:48.136Z,87.96
2023-03-17T06:07:54.882Z,87.34
2023-03-17T06:08:49.141Z,86.51
2023-03-17T06:09:48.107Z,87.44
2023-03-17T06:10:48.102Z,85.77
2023-03-17T06:11:48.089Z,86.19
2023-03-17T06:12:48.072Z,86.92
2023-03-17T06:13:48.070Z,87.13
2023-03-17T06:14:48.055Z,87.60
2023-03-17T06:15:48.107Z,88.54
2023-03-17T06:16:48.039Z,89.27
2023-03-17T06:17:48.025Z,89.72
2023-03-17T06:18:48.028Z,89.62
2023-03-17T06:19:49.479Z,90.66
2023-03-17T06:20:47.995Z,91.07
2023-03-17T06:21:47.994Z,91.59
2023-03-17T06:23:02.782Z,91.69
2023-03-17T06:23:48.995Z,92.63
2023-03-17T06:24:47.960Z,92.73
2023-03-17T06:25:47.951Z,92.63
2023-03-17T06:26:47.936Z,91.69
2023-03-17T06:27:47.934Z,91.90
2023-03-17T06:28:47.921Z,91.59
2023-03-17T06:29:47.911Z,90.61
2023-03-17T06:30:47.939Z,89.99
2023-03-17T06:31:47.907Z,90.51
2023-03-17T06:32:47.898Z,89.37
2023-03-17T06:33:47.870Z,89.89
2023-03-17T06:34:47.859Z,88.64
2023-03-17T06:35:47.867Z,88.75
2023-03-17T06:36:47.833Z,87.15
2023-03-17T06:37:47.845Z,87.88
2023-03-17T06:38:47.825Z,87.46
2023-03-17T06:39:47.808Z,87.36
2023-03-17T06:40:47.794Z,87.26
2023-03-17T06:41:47.784Z,86.12
2023-03-17T06:42:47.774Z,85.97
2023-03-17T06:43:47.764Z,85.35
2023-03-17T06:44:47.756Z,84.21
2023-03-17T06:45:47.744Z,83.89
2023-03-17T06:46:47.760Z,83.13
2023-03-17T06:47:47.748Z,83.03
2023-03-17T06:48:47.733Z,82.92
2023-03-17T06:49:47.702Z,84.27
2023-03-17T06:50:47.724Z,84.69
2023-03-17T06:51:47.681Z,85.52
2023-03-17T06:52:47.678Z,82.72
2023-03-17T06:53:47.662Z,82.20
2023-03-17T06:54:47.655Z,78.47
2023-03-17T06:55:47.643Z,77.95
2023-03-17T06:56:47.660Z,76.50
2023-03-17T06:57:50.460Z,79.09
2023-03-17T06:58:47.609Z,77.39
2023-03-17T06:59:47.606Z,76.77
2023-03-17T07:00:47.593Z,78.33
2023-03-17T07:01:47.645Z,78.74
2023-03-17T07:02:47.572Z,79.88
2023-03-17T07:03:47.583Z,80.40
2023-03-17T07:04:47.661Z,79.37
2023-03-17T07:05:47.544Z,79.63
2023-03-17T07:06:47.532Z,78.91
2023-03-17T07:07:47.535Z,80.43
2023-03-17T07:08:47.556Z,81.46
2023-03-17T07:09:47.504Z,78.46
2023-03-17T07:10:47.501Z,78.01
2023-03-17T07:11:47.495Z,77.70
2023-03-17T07:12:47.487Z,76.22
2023-03-17T07:13:47.469Z,75.08
2023-03-17T07:14:47.454Z,74.67
2023-03-17T07:15:47.524Z,74.32
2023-03-17T07:16:47.498Z,74.12
2023-03-17T07:17:47.424Z,75.04
2023-03-17T07:18:47.429Z,75.94
2023-03-17T07:19:47.424Z,76.97
2023-03-17T07:20:47.412Z,77.60
2023-03-17T07:21:47.382Z,78.00
2023-03-17T07:22:47.366Z,77.80
2023-03-17T07:23:47.355Z,77.35
2023-03-17T07:24:47.350Z,76.73
2023-03-17T07:25:47.354Z,76.94
2023-03-17T07:26:47.326Z,76.73
2023-03-17T07:27:47.318Z,76.49
2023-03-17T07:28:47.314Z,75.97
2023-03-17T07:29:47.296Z,75.97
2023-03-17T07:30:47.292Z,74.73
2023-03-17T07:31:47.357Z,74.08
2023-03-17T07:32:47.390Z,72.71
2023-03-17T07:33:47.255Z,70.54
2023-03-17T07:34:47.245Z,69.37
2023-03-17T07:35:47.282Z,69.37
2023-03-17T07:36:47.237Z,68.42
2023-03-17T07:37:47.216Z,67.90
2023-03-17T07:38:47.205Z,66.94
2023-03-17T07:39:47.195Z,67.25
2023-03-17T07:40:47.181Z,67.15
2023-03-17T07:41:47.170Z,66.19
2023-03-17T07:42:47.161Z,64.72
2023-03-17T07:43:47.150Z,64.41
2023-03-17T07:44:47.138Z,64.28
2023-03-17T07:45:47.201Z,63.97
2023-03-17T07:46:47.121Z,63.01
2023-03-17T07:47:47.107Z,62.29
2023-03-17T07:48:47.102Z,61.75
2023-03-17T07:49:47.106Z,59.08
2023-03-17T07:50:47.116Z,54.94
2023-03-17T07:51:47.110Z,56.28
2023-03-17T07:52:47.055Z,57.28
2023-03-17T07:53:47.049Z,58.82
2023-03-17T07:54:47.043Z,57.54
2023-03-17T07:55:47.067Z,58.41
2023-03-17T07:56:47.021Z,59.68
2023-03-17T07:57:47.073Z,61.35
2023-03-17T07:58:46.995Z,62.38
2023-03-17T07:59:46.984Z,62.76
2023-03-17T08:00:47.008Z,60.54
2023-03-17T08:01:47.076Z,58.90
2023-03-17T08:02:59.580Z,57.97
2023-03-17T08:03:48.148Z,58.18
2023-03-17T08:04:46.991Z,58.05
2023-03-17T08:05:46.956Z,57.46
2023-03-17T08:06:46.945Z,58.69
2023-03-17T08:07:46.925Z,58.05
2023-03-17T08:08:46.924Z,57.61
2023-03-17T08:09:46.994Z,56.97
2023-03-17T08:10:46.884Z,56.97
2023-03-17T08:11:46.898Z,54.69
2023-03-17T08:12:46.859Z,51.61
2023-03-17T08:13:46.838Z,52.66
2023-03-17T08:14:46.938Z,53.40
2023-03-17T08:15:46.820Z,54.63
2023-03-17T08:16:46.891Z,54.43
2023-03-17T08:17:46.799Z,53.86
2023-03-17T08:18:46.814Z,53.92
2023-03-17T08:19:46.818Z,53.56
2023-03-17T08:20:46.769Z,52.51
2023-03-17T08:21:46.778Z,51.87
2023-03-17T08:22:46.775Z,52.08
2023-03-17T08:23:46.805Z,50.23
2023-03-17T08:24:46.730Z,49.81
2023-03-17T08:25:46.718Z,47.45
2023-03-17T08:26:46.709Z,45.41
2023-03-17T08:27:46.711Z,45.18
2023-03-17T08:28:46.722Z,44.98
2023-03-17T08:29:46.718Z,46.00
2023-03-17T08:30:49.208Z,45.41
2023-03-17T08:31:46.895Z,43.97
2023-03-17T08:32:46.823Z,43.03
2023-03-17T08:33:46.659Z,44.47
2023-03-17T08:34:46.627Z,44.77
2023-03-17T08:35:46.655Z,45.18
2023-03-17T08:36:46.612Z,45.89
2023-03-17T08:37:46.594Z,45.67
2023-03-17T08:38:46.587Z,43.46
2023-03-17T08:39:46.601Z,44.07
2023-03-17T08:40:46.568Z,44.26
2023-03-17T08:41:46.557Z,44.67
2023-03-17T08:42:46.548Z,43.01
2023-03-17T08:43:46.538Z,41.56
2023-03-17T08:44:46.535Z,42.87
2023-03-17T08:45:46.630Z,41.04
2023-03-17T08:46:46.503Z,41.97
2023-03-17T08:47:46.497Z,42.40
2023-03-17T08:48:46.532Z,41.87
2023-03-17T08:49:46.505Z,40.93
2023-03-17T08:50:46.464Z,40.10
2023-03-17T08:51:46.470Z,39.47
2023-03-17T08:52:46.449Z,39.42
2023-03-17T08:53:46.454Z,41.87
2023-03-17T08:54:46.423Z,42.59
2023-03-17T08:55:46.440Z,43.50
2023-03-17T08:56:46.406Z,42.89
2023-03-17T08:57:46.401Z,42.75
2023-03-17T08:58:46.388Z,41.49
2023-03-17T08:59:46.378Z,40.42
2023-03-17T09:00:46.371Z,38.88
2023-03-17T09:01:46.388Z,39.29
2023-03-17T09:02:46.369Z,37.17
2023-03-17T09:03:46.339Z,38.29
2023-03-17T09:04:46.329Z,38.61
2023-03-17T09:05:46.322Z,37.60
2023-03-17T09:07:01.841Z,37.84
2023-03-17T09:07:47.361Z,38.50
2023-03-17T09:08:46.288Z,36.83
2023-03-17T09:09:46.282Z,36.49
2023-03-17T09:10:46.270Z,36.07
2023-03-17T09:11:46.328Z,34.62
2023-03-17T09:12:46.252Z,33.87
2023-03-17T09:13:46.244Z,35.74
2023-03-17T09:14:48.070Z,35.94
2023-03-17T09:15:46.322Z,36.40
2023-03-17T09:16:46.207Z,35.36
2023-03-17T09:17:46.207Z,35.85
2023-03-17T09:18:46.193Z,35.71
2023-03-17T09:19:46.183Z,35.66
2023-03-17T09:20:46.174Z,35.86
2023-03-17T09:21:46.169Z,36.66
2023-03-17T09:22:46.148Z,38.46
2023-03-17T09:23:46.146Z,37.31
2023-03-17T09:24:46.137Z,36.44
2023-03-17T09:25:46.123Z,34.88
2023-03-17T09:26:46.110Z,35.17
2023-03-17T09:27:46.128Z,33.70
2023-03-17T09:28:46.092Z,32.87
2023-03-17T09:29:46.087Z,33.04
2023-03-17T09:30:46.089Z,33.06
2023-03-17T09:31:46.063Z,34.17
2023-03-17T09:32:46.103Z,33.87
2023-03-17T09:33:46.037Z,33.78
2023-03-17T09:34:46.031Z,33.16
2023-03-17T09:35:46.093Z,34.36
2023-03-17T09:36:46.008Z,34.14
2023-03-17T09:37:45.997Z,33.00
2023-03-17T09:38:45.985Z,33.30
2023-03-17T09:39:45.975Z,31.57
2023-03-17T09:40:45.969Z,31.78
2023-03-17T09:41:45.968Z,32.07
2023-03-17T09:42:45.947Z,32.17
2023-03-17T09:43:45.966Z,32.44
2023-03-17T09:44:45.923Z,32.75
2023-03-17T09:45:45.935Z,31.59
2023-03-17T09:46:45.945Z,33.93
2023-03-17T09:47:45.904Z,36.07
2023-03-17T09:48:45.884Z,35.93
2023-03-17T09:49:45.883Z,33.17
2023-03-17T09:50:45.867Z,33.16
2023-03-17T09:51:45.856Z,34.66
2023-03-17T09:52:45.846Z,33.16
2023-03-17T09:53:45.848Z,34.44
2023-03-17T09:54:45.830Z,34.91
2023-03-17T09:55:45.816Z,34.03
2023-03-17T09:56:45.815Z,35.35
2023-03-17T09:57:45.800Z,34.60
2023-03-17T09:58:45.789Z,33.52
2023-03-17T09:59:45.811Z,32.61
2023-03-17T10:00:45.780Z,33.62
2023-03-17T10:01:45.798Z,33.75
2023-03-17T10:02:45.754Z,34.29
2023-03-17T10:03:45.748Z,34.47
2023-03-17T10:04:45.788Z,35.51
2023-03-17T10:05:45.909Z,35.47
2023-03-17T10:06:45.715Z,33.77
2023-03-17T10:07:45.701Z,34.64
2023-03-17T10:08:45.695Z,34.46
2023-03-17T10:09:45.680Z,35.40
2023-03-17T10:10:45.680Z,35.59
2023-03-17T10:11:45.661Z,35.13
2023-03-17T10:12:45.650Z,34.27
2023-03-17T10:13:45.641Z,32.85
2023-03-17T10:14:45.634Z,34.98
2023-03-17T10:15:45.811Z,36.98
2023-03-17T10:16:45.614Z,38.09
2023-03-17T10:17:45.603Z,37.62
2023-03-17T10:18:45.596Z,36.77
2023-03-17T10:19:45.585Z,36.07
2023-03-17T10:20:45.585Z,37.15
2023-03-17T10:21:45.569Z,38.00
2023-03-17T10:22:45.567Z,35.20
2023-03-17T10:23:45.550Z,34.05
2023-03-17T10:24:45.535Z,35.44
2023-03-17T10:25:45.528Z,33.62
2023-03-17T10:26:45.518Z,34.44
2023-03-17T10:27:45.520Z,34.63
2023-03-17T10:28:45.499Z,32.82
2023-03-17T10:29:48.289Z,36.27
2023-03-17T10:30:45.478Z,36.64
2023-03-17T10:31:45.610Z,34.80
2023-03-17T10:32:45.529Z,35.61
2023-03-17T10:33:45.447Z,36.71
2023-03-17T10:34:45.440Z,35.71
2023-03-17T10:35:45.460Z,33.53
2023-03-17T10:36:45.421Z,32.58
2023-03-17T10:37:45.410Z,31.42
2023-03-17T10:38:45.401Z,30.49
2023-03-17T10:39:45.392Z,30.18
2023-03-17T10:40:45.381Z,30.36
2023-03-17T10:41:45.369Z,29.67
2023-03-17T10:42:45.359Z,31.07
2023-03-17T10:43:45.398Z,31.39
2023-03-17T10:44:45.341Z,32.07
2023-03-17T10:45:45.376Z,31.43
2023-03-17T10:46:45.347Z,31.48
2023-03-17T10:47:45.355Z,32.79
2023-03-17T10:48:45.300Z,32.58
2023-03-17T10:49:45.292Z,32.43
2023-03-17T10:50:46.014Z,31.49
2023-03-17T10:51:45.274Z,30.88
2023-03-17T10:52:45.409Z,29.79
2023-03-17T10:53:45.248Z,30.71
2023-03-17T10:54:45.242Z,31.84
2023-03-17T10:55:45.231Z,32.15
2023-03-17T10:56:45.224Z,32.36
2023-03-17T10:57:45.208Z,32.39
2023-03-17T10:58:45.219Z,33.36
2023-03-17T10:59:45.195Z,34.54
2023-03-17T11:00:45.197Z,36.37
2023-03-17T11:01:45.169Z,35.41
2023-03-17T11:02:45.169Z,34.13
2023-03-17T11:03:45.191Z,32.05
2023-03-17T11:04:45.139Z,31.10
2023-03-17T11:05:45.133Z,30.67
2023-03-17T11:06:45.120Z,30.04
2023-03-17T11:07:45.113Z,29.13
2023-03-17T11:08:45.098Z,29.60
2023-03-17T11:09:45.090Z,28.38
2023-03-17T11:10:45.089Z,28.97
2023-03-17T11:11:45.072Z,29.82
2023-03-17T11:12:45.065Z,30.51
2023-03-17T11:13:45.053Z,32.98
2023-03-17T11:14:45.049Z,33.08
2023-03-17T11:15:45.034Z,32.59
2023-03-17T11:16:45.054Z,32.15
2023-03-17T11:17:45.021Z,33.33
2023-03-17T11:18:45.007Z,33.79
2023-03-17T11:19:45.034Z,32.93
2023-03-17T11:20:44.988Z,32.09
2023-03-17T11:21:44.978Z,30.97
2023-03-17T11:22:44.969Z,30.82
2023-03-17T11:23:44.958Z,31.20
2023-03-17T11:24:44.944Z,30.71
2023-03-17T11:25:44.937Z,29.22
2023-03-17T11:26:44.927Z,29.87
2023-03-17T11:27:44.920Z,31.72
2023-03-17T11:28:44.913Z,31.01
2023-03-17T11:29:44.904Z,31.42
2023-03-17T11:30:44.891Z,32.89
2023-03-17T11:31:44.948Z,33.85
2023-03-17T11:32:44.925Z,34.19
2023-03-17T11:33:44.863Z,34.91
2023-03-17T11:34:44.855Z,34.04
2023-03-17T11:35:44.899Z,32.25
2023-03-17T11:36:44.851Z,31.90
2023-03-17T11:37:44.829Z,31.42
2023-03-17T11:38:44.816Z,32.79
2023-03-17T11:39:44.803Z,32.28
2023-03-17T11:40:44.802Z,31.45
2023-03-17T11:41:44.791Z,30.19
2023-03-17T11:42:44.782Z,30.85
2023-03-17T11:43:44.767Z,29.76
2023-03-17T11:44:44.756Z,31.79
2023-03-17T11:45:44.753Z,32.37
2023-03-17T11:46:44.733Z,30.65
2023-03-17T11:47:44.727Z,29.51
2023-03-17T11:49:09.153Z,28.87
2023-03-17T11:49:44.707Z,29.58
2023-03-17T11:50:44.695Z,29.14
2023-03-17T11:51:44.716Z,27.33
2023-03-17T11:52:44.678Z,28.55
2023-03-17T11:53:44.667Z,29.34
2023-03-17T11:54:44.658Z,30.61
2023-03-17T11:55:44.656Z,33.30
2023-03-17T11:56:44.641Z,32.67
2023-03-17T11:57:44.625Z,30.92
2023-03-17T11:58:44.629Z,29.79
2023-03-17T11:59:44.604Z,30.68
2023-03-17T12:02:50.695Z,30.49
2023-03-17T12:02:52.118Z,29.87
2023-03-17T12:03:52.270Z,29.49
2023-03-17T12:04:52.190Z,30.04
2023-03-17T12:05:52.089Z,31.27
2023-03-17T12:06:52.105Z,30.55
2023-03-17T12:08:29.898Z,30.75
2023-03-17T12:08:52.061Z,30.99
2023-03-17T12:09:52.048Z,33.06
2023-03-17T12:11:04.693Z,32.46
2023-03-17T12:11:52.042Z,32.09
2023-03-17T12:12:58.307Z,32.35
2023-03-17T12:14:30.232Z,30.09
2023-03-17T12:16:20.634Z,29.46
2023-03-17T12:16:22.064Z,28.64
2023-03-17T12:17:22.054Z,28.61
2023-03-17T12:18:22.040Z,27.69
2023-03-17T12:19:22.036Z,27.32
2023-03-17T12:20:22.021Z,27.72
2023-03-17T12:21:22.014Z,28.14
2023-03-17T12:22:22.024Z,28.74
2023-03-17T12:23:21.994Z,28.34
2023-03-17T12:26:36.636Z,28.49
2023-03-17T12:37:10.722Z,30.70
2023-03-17T12:37:12.132Z,28.77
2023-03-17T12:39:06.916Z,29.80
2023-03-17T12:39:12.112Z,29.43
2023-03-17T12:41:05.156Z,31.27
2023-03-17T12:41:12.092Z,30.74
2023-03-17T12:42:12.084Z,29.35
2023-03-17T12:43:12.073Z,30.38
2023-03-17T12:44:12.062Z,30.48
2023-03-17T12:45:12.066Z,30.48
2023-03-17T12:46:12.084Z,32.12
2023-03-17T12:47:12.034Z,30.99
2023-03-17T12:48:12.036Z,31.49
2023-03-17T12:49:12.014Z,30.58
2023-03-17T12:50:12.012Z,30.42
2023-03-17T12:51:11.997Z,31.72
2023-03-17T12:56:35.340Z,32.98
2023-03-17T13:10:46.454Z,31.53
2023-03-17T13:10:47.874Z,33.28
2023-03-17T13:11:47.913Z,35.32
2023-03-17T13:12:47.857Z,34.05
2023-03-17T13:13:51.781Z,33.30
2023-03-17T13:15:09.946Z,33.03
2023-03-17T13:15:47.827Z,32.15
2023-03-17T14:13:29.049Z,30.10
2023-03-17T14:13:30.474Z,28.40
2023-03-17T14:14:33.258Z,27.65
2023-03-17T14:15:30.651Z,29.83
2023-03-17T14:16:30.500Z,31.66
2023-03-17T14:17:30.451Z,33.12
2023-03-17T14:18:30.435Z,35.02
2023-03-17T14:19:30.419Z,31.93
2023-03-17T14:20:30.420Z,30.77
2023-03-17T14:25:17.632Z,29.31
2023-03-17T14:25:19.054Z,29.16
2023-03-17T14:26:19.043Z,29.24
2023-03-17T14:27:19.031Z,29.74
2023-03-17T14:28:19.025Z,28.68
2023-03-17T14:29:19.039Z,30.21
2023-03-17T14:30:19.024Z,30.42
2023-03-17T14:31:19.047Z,30.51
2023-03-17T14:32:18.986Z,30.09
2023-03-17T14:33:20.644Z,29.58
2023-03-17T14:34:18.973Z,29.93
2023-03-17T14:36:26.022Z,31.39
2023-03-17T14:36:27.602Z,31.07
2023-03-17T14:37:27.433Z,30.94
2023-03-17T14:41:13.378Z,33.12
2023-03-17T14:41:14.805Z,33.54
2023-03-17T14:42:14.796Z,32.16
2023-03-17T14:43:14.788Z,31.35
2023-03-17T14:44:14.772Z,30.52
2023-03-17T14:45:14.791Z,30.42
2023-03-17T14:46:14.867Z,30.51
2023-03-17T14:47:14.744Z,29.60
2023-03-17T14:48:14.734Z,29.49
2023-03-17T14:49:14.730Z,29.18
2023-03-17T14:50:14.717Z,29.60
2023-03-17T14:51:14.709Z,29.29
2023-03-17T14:52:14.699Z,29.08
2023-03-17T14:53:15.039Z,30.10
2023-03-17T14:54:14.690Z,30.02
2023-03-17T14:55:14.667Z,30.23
2023-03-17T14:56:14.680Z,30.12
2023-03-17T14:57:14.654Z,29.30
2023-03-17T14:58:14.639Z,28.48
2023-03-17T14:59:14.635Z,29.30
2023-03-17T15:00:14.646Z,28.98
2023-03-17T15:01:14.726Z,28.67
2023-03-17T15:02:14.712Z,28.98
2023-03-17T15:03:14.632Z,29.41
2023-03-17T15:04:14.578Z,30.22
2023-03-17T15:05:14.569Z,30.62
2023-03-17T15:06:14.562Z,30.74
2023-03-17T15:07:14.554Z,31.26
2023-03-17T15:08:14.540Z,32.09
2023-03-17T15:09:14.533Z,33.94
2023-03-17T15:10:14.538Z,34.65
2023-03-17T15:11:14.514Z,33.54
2023-03-17T15:12:14.500Z,33.03
2023-03-17T15:13:14.492Z,33.11
2023-03-17T15:14:14.489Z,34.61
2023-03-17T15:15:14.471Z,36.93
2023-03-17T15:16:14.498Z,37.54
2023-03-17T15:17:14.480Z,37.42
2023-03-17T15:18:14.447Z,37.71
2023-03-17T15:19:14.429Z,36.99
2023-03-17T15:20:14.432Z,37.81
2023-03-17T15:21:14.414Z,38.20
2023-03-17T15:22:14.402Z,38.18
2023-03-17T15:23:14.390Z,36.98
2023-03-17T15:24:14.379Z,36.98
2023-03-17T15:25:14.521Z,37.17
2023-03-17T15:26:14.365Z,36.68
2023-03-17T15:27:14.349Z,37.34
2023-03-17T15:28:14.343Z,38.36
2023-03-17T15:29:14.335Z,38.36
2023-03-17T15:30:14.344Z,38.75
2023-03-17T15:31:14.348Z,38.32
2023-03-17T15:32:14.300Z,38.40
2023-03-17T15:33:14.367Z,37.47
2023-03-17T15:34:14.282Z,37.67
2023-03-17T15:35:14.297Z,37.28
2023-03-17T15:36:25.499Z,38.39
2023-03-17T15:37:15.271Z,37.30
2023-03-17T15:38:14.238Z,38.12
2023-03-17T15:39:14.228Z,37.51
2023-03-17T15:40:14.227Z,37.30
2023-03-17T15:41:14.209Z,37.89
2023-03-17T15:42:14.200Z,37.49
2023-03-17T15:43:14.193Z,37.69
2023-03-17T15:44:14.175Z,36.98
2023-03-17T15:45:14.170Z,38.50
2023-03-17T15:46:14.273Z,38.48
2023-03-17T15:47:14.152Z,38.20
2023-03-17T15:48:14.138Z,38.10
2023-03-17T15:49:14.156Z,38.20
2023-03-17T15:50:14.122Z,38.73
2023-03-17T15:51:14.110Z,39.64
2023-03-17T15:52:14.100Z,38.93
2023-03-17T15:53:14.087Z,38.42
2023-03-17T15:54:14.079Z,39.94
2023-03-17T15:55:14.070Z,38.81
2023-03-17T15:56:14.064Z,38.40
2023-03-17T15:57:14.100Z,37.17
2023-03-17T15:58:14.035Z,37.57
2023-03-17T15:59:14.120Z,38.06
2023-03-17T16:00:14.016Z,37.67
2023-03-17T16:01:14.066Z,37.87
2023-03-17T16:02:13.993Z,38.50
2023-03-17T16:03:13.986Z,39.42
2023-03-17T16:04:14.062Z,38.81
2023-03-17T16:05:13.989Z,38.81
2023-03-17T16:06:13.961Z,37.89
2023-03-17T16:07:13.943Z,37.30
2023-03-17T16:08:13.973Z,38.23
2023-03-17T16:09:13.962Z,39.25
2023-03-17T16:10:13.917Z,38.84
2023-03-17T16:11:13.915Z,38.54
2023-03-17T16:12:13.890Z,39.58
2023-03-17T16:13:13.883Z,39.47
2023-03-17T16:14:13.889Z,40.19
2023-03-17T16:15:22.598Z,39.49
2023-03-17T16:16:14.906Z,40.42
2023-03-17T16:17:13.837Z,41.04
2023-03-17T16:18:13.834Z,40.02
2023-03-17T16:19:13.823Z,40.22
2023-03-17T16:20:13.812Z,40.55
2023-03-17T16:21:13.837Z,41.04
2023-03-17T16:22:13.783Z,40.53
2023-03-17T16:23:13.784Z,40.33
2023-03-17T16:24:13.768Z,39.72
2023-03-17T16:25:13.907Z,40.74
2023-03-17T16:26:16.486Z,41.35
2023-03-17T16:27:13.748Z,40.12
2023-03-17T16:28:13.733Z,40.02
2023-03-17T16:29:13.740Z,40.35
2023-03-17T16:30:13.703Z,41.36
2023-03-17T16:31:13.896Z,41.16
2023-03-17T16:32:13.682Z,41.67
2023-03-17T16:33:13.672Z,41.28
2023-03-17T16:34:13.662Z,41.58
2023-03-17T16:35:13.663Z,41.67
2023-03-17T16:36:13.650Z,41.67
2023-03-17T16:37:13.668Z,41.87
2023-03-17T16:38:13.622Z,40.71
2023-03-17T16:39:13.616Z,40.71
2023-03-17T16:40:15.234Z,40.20
2023-03-17T16:41:13.592Z,40.71
2023-03-17T16:42:13.591Z,40.31
2023-03-17T16:43:24.508Z,40.31
2023-03-17T16:44:14.636Z,40.20
2023-03-17T16:45:13.552Z,41.44
2023-03-17T16:46:13.598Z,41.55
2023-03-17T16:47:13.530Z,40.51
2023-03-17T16:48:13.514Z,39.70
2023-03-17T16:49:13.509Z,40.41
2023-03-17T16:50:13.505Z,40.20
2023-03-17T16:51:13.489Z,39.47
2023-03-17T16:52:13.482Z,39.49
2023-03-17T16:53:13.490Z,38.98
2023-03-17T16:54:13.459Z,39.49
2023-03-17T16:55:13.450Z,39.29
2023-03-17T16:56:13.549Z,39.80
2023-03-17T16:57:13.431Z,38.97
2023-03-17T16:58:13.413Z,38.15
2023-03-17T16:59:13.405Z,38.47
2023-03-17T17:00:13.395Z,38.86
2023-03-17T17:01:13.439Z,39.19
2023-03-17T17:02:13.385Z,39.51
2023-03-17T17:03:13.461Z,40.12
2023-03-17T17:04:13.354Z,40.04
2023-03-17T17:05:13.354Z,40.35
2023-03-17T17:06:13.335Z,40.16
2023-03-17T17:07:13.327Z,40.97
2023-03-17T17:08:13.308Z,41.30
2023-03-17T17:09:13.422Z,42.04
2023-03-17T17:10:13.290Z,42.65
2023-03-17T17:11:13.280Z,42.75
2023-03-17T17:12:13.272Z,42.77
2023-03-17T17:13:13.268Z,43.20
2023-03-17T17:14:13.249Z,43.40
2023-03-17T17:15:13.242Z,43.40
2023-03-17T17:16:13.262Z,42.99
2023-03-17T17:17:13.226Z,42.68
2023-03-17T17:18:13.228Z,42.89
2023-03-17T17:19:13.198Z,42.79
2023-03-17T17:20:13.195Z,43.30
2023-03-17T17:21:13.177Z,43.21
2023-03-17T17:22:13.168Z,43.53
2023-03-17T17:23:13.164Z,43.73
2023-03-17T17:24:13.158Z,44.06
2023-03-17T17:25:13.184Z,43.44
2023-03-17T17:26:13.175Z,43.46
2023-03-17T17:27:13.123Z,43.97
2023-03-17T17:28:13.113Z,44.38
2023-03-17T17:29:13.105Z,44.40
2023-03-17T17:30:13.091Z,44.92
2023-03-17T17:31:13.123Z,45.63
2023-03-17T17:32:13.076Z,45.22
2023-03-17T17:33:13.060Z,44.40
2023-03-17T17:34:13.072Z,45.24